sensor_id;sensor_type;location;lat;lon;timestamp;pressure;altitude;pressure_sealevel;temperature;humidity
42847;BME280;28495;49.916;14.536;2023-03-26T00:04:26;96032.09;;;7.60;59.97
42847;BME280;28495;49.916;14.536;2023-03-26T00:09:47;96025.66;;;7.65;59.89
42847;BME280;28495;49.916;14.536;2023-03-26T00:15:08;96040.41;;;7.64;59.86
42847;BME280;28495;49.916;14.536;2023-03-26T00:20:30;96032.78;;;7.62;59.84
42847;BME280;28495;49.916;14.536;2023-03-26T00:25:55;96035.47;;;7.71;60.14
42847;BME280;28495;49.916;14.536;2023-03-26T00:31:16;96031.66;;;7.75;59.78
42847;BME280;28495;49.916;14.536;2023-03-26T00:36:37;96036.31;;;7.71;59.44
42847;BME280;28495;49.916;14.536;2023-03-26T00:41:58;96036.72;;;7.67;59.94
42847;BME280;28495;49.916;14.536;2023-03-26T00:47:19;96036.34;;;7.61;59.64
42847;BME280;28495;49.916;14.536;2023-03-26T00:52:42;96046.41;;;7.65;60.06
42847;BME280;28495;49.916;14.536;2023-03-26T00:58:04;96037.66;;;7.66;59.98
42847;BME280;28495;49.916;14.536;2023-03-26T01:03:27;96037.41;;;7.69;59.85
42847;BME280;28495;49.916;14.536;2023-03-26T01:08:54;96027.84;;;7.69;60.20
42847;BME280;28495;49.916;14.536;2023-03-26T01:14:22;96031.78;;;7.73;60.13
42847;BME280;28495;49.916;14.536;2023-03-26T01:20:33;96026.47;;;7.75;60.00
42847;BME280;28495;49.916;14.536;2023-03-26T01:25:39;96020.31;;;7.76;59.99
42847;BME280;28495;49.916;14.536;2023-03-26T01:31:09;96020.31;;;7.76;60.19
42847;BME280;28495;49.916;14.536;2023-03-26T01:42:18;95993.56;;;7.66;60.08
42847;BME280;28495;49.916;14.536;2023-03-26T01:47:41;95988.00;;;7.60;60.13
42847;BME280;28495;49.916;14.536;2023-03-26T01:53:04;95998.13;;;7.54;60.21
42847;BME280;28495;49.916;14.536;2023-03-26T01:58:37;96002.47;;;7.43;60.42
42847;BME280;28495;49.916;14.536;2023-03-26T02:04:06;96006.34;;;7.39;60.26
42847;BME280;28495;49.916;14.536;2023-03-26T02:09:35;96003.59;;;7.41;60.54
42847;BME280;28495;49.916;14.536;2023-03-26T02:15:00;96005.50;;;7.39;60.54
42847;BME280;28495;49.916;14.536;2023-03-26T02:20:21;96009.88;;;7.38;60.54
42847;BME280;28495;49.916;14.536;2023-03-26T02:25:42;95994.31;;;7.38;60.71
42847;BME280;28495;49.916;14.536;2023-03-26T02:31:04;95989.66;;;7.42;60.53
42847;BME280;28495;49.916;14.536;2023-03-26T02:36:25;95997.59;;;7.40;60.59
42847;BME280;28495;49.916;14.536;2023-03-26T02:41:53;95993.22;;;7.41;60.82
42847;BME280;28495;49.916;14.536;2023-03-26T02:47:14;95989.13;;;7.38;60.67
42847;BME280;28495;49.916;14.536;2023-03-26T02:52:44;95998.41;;;7.41;60.61
42847;BME280;28495;49.916;14.536;2023-03-26T02:58:09;95993.06;;;7.42;60.93
42847;BME280;28495;49.916;14.536;2023-03-26T03:03:32;95991.03;;;7.46;60.93
42847;BME280;28495;49.916;14.536;2023-03-26T03:09:16;95990.34;;;7.44;60.76
42847;BME280;28495;49.916;14.536;2023-03-26T03:14:57;95983.50;;;7.53;60.84
42847;BME280;28495;49.916;14.536;2023-03-26T03:20:18;95984.19;;;7.55;61.00
42847;BME280;28495;49.916;14.536;2023-03-26T03:25:38;95986.91;;;7.53;60.91
42847;BME280;28495;49.916;14.536;2023-03-26T03:31:01;95981.19;;;7.50;60.93
42847;BME280;28495;49.916;14.536;2023-03-26T03:36:25;95989.38;;;7.45;60.92
42847;BME280;28495;49.916;14.536;2023-03-26T03:41:57;95996.75;;;7.50;61.32
42847;BME280;28495;49.916;14.536;2023-03-26T03:47:18;95990.72;;;7.49;61.08
42847;BME280;28495;49.916;14.536;2023-03-26T03:52:40;95998.50;;;7.49;61.21
42847;BME280;28495;49.916;14.536;2023-03-26T03:58:02;95986.38;;;7.50;61.38
42847;BME280;28495;49.916;14.536;2023-03-26T04:03:23;95981.47;;;7.46;61.43
42847;BME280;28495;49.916;14.536;2023-03-26T04:08:57;95983.78;;;7.40;61.20
42847;BME280;28495;49.916;14.536;2023-03-26T04:14:18;95985.72;;;7.38;61.10
42847;BME280;28495;49.916;14.536;2023-03-26T04:20:10;95979.56;;;7.29;61.15
42847;BME280;28495;49.916;14.536;2023-03-26T04:25:36;95989.25;;;7.27;61.19
42847;BME280;28495;49.916;14.536;2023-03-26T04:31:22;95980.41;;;7.20;61.37
42847;BME280;28495;49.916;14.536;2023-03-26T04:36:51;95977.69;;;7.21;61.45
42847;BME280;28495;49.916;14.536;2023-03-26T04:42:18;95978.78;;;7.28;61.20
42847;BME280;28495;49.916;14.536;2023-03-26T04:47:59;95977.13;;;7.27;61.26
42847;BME280;28495;49.916;14.536;2023-03-26T04:53:22;95973.59;;;7.28;61.42
42847;BME280;28495;49.916;14.536;2023-03-26T04:59:19;95979.44;;;7.30;61.67
42847;BME280;28495;49.916;14.536;2023-03-26T05:04:46;95976.84;;;7.30;61.24
42847;BME280;28495;49.916;14.536;2023-03-26T05:10:13;95980.13;;;7.32;61.46
42847;BME280;28495;49.916;14.536;2023-03-26T05:16:04;95978.75;;;7.38;61.72
42847;BME280;28495;49.916;14.536;2023-03-26T05:21:41;95986.13;;;7.43;61.57
42847;BME280;28495;49.916;14.536;2023-03-26T05:27:02;95987.50;;;7.37;61.41
42847;BME280;28495;49.916;14.536;2023-03-26T05:32:35;95983.53;;;7.43;61.84
42847;BME280;28495;49.916;14.536;2023-03-26T05:37:56;95984.72;;;7.48;61.51
42847;BME280;28495;49.916;14.536;2023-03-26T05:43:18;95991.81;;;7.56;61.33
42847;BME280;28495;49.916;14.536;2023-03-26T05:48:46;95984.31;;;7.53;61.52
42847;BME280;28495;49.916;14.536;2023-03-26T05:54:07;95988.28;;;7.47;61.17
42847;BME280;28495;49.916;14.536;2023-03-26T05:59:47;95976.41;;;7.45;61.42
42847;BME280;28495;49.916;14.536;2023-03-26T06:05:40;95978.06;;;7.46;61.45
42847;BME280;28495;49.916;14.536;2023-03-26T06:11:09;95974.47;;;7.57;61.80
42847;BME280;28495;49.916;14.536;2023-03-26T06:16:32;95979.78;;;7.65;61.72
42847;BME280;28495;49.916;14.536;2023-03-26T06:22:13;95976.63;;;7.71;61.43
42847;BME280;28495;49.916;14.536;2023-03-26T06:27:53;95975.75;;;7.81;61.49
42847;BME280;28495;49.916;14.536;2023-03-26T06:33:45;95972.22;;;7.82;61.23
42847;BME280;28495;49.916;14.536;2023-03-26T06:39:08;95954.50;;;8.23;61.42
42847;BME280;28495;49.916;14.536;2023-03-26T06:44:36;95950.16;;;8.42;61.25
42847;BME280;28495;49.916;14.536;2023-03-26T06:50:15;95952.88;;;8.50;60.83
42847;BME280;28495;49.916;14.536;2023-03-26T06:55:48;95956.91;;;8.34;60.96
42847;BME280;28495;49.916;14.536;2023-03-26T07:01:15;95948.66;;;8.21;60.93
42847;BME280;28495;49.916;14.536;2023-03-26T07:06:55;95958.03;;;8.32;61.11
42847;BME280;28495;49.916;14.536;2023-03-26T07:12:34;95957.78;;;8.25;60.83
42847;BME280;28495;49.916;14.536;2023-03-26T07:18:16;95952.81;;;8.32;61.10
42847;BME280;28495;49.916;14.536;2023-03-26T07:23:38;95950.44;;;8.20;60.72
42847;BME280;28495;49.916;14.536;2023-03-26T07:29:42;95949.00;;;8.08;61.04
42847;BME280;28495;49.916;14.536;2023-03-26T07:35:45;95938.47;;;8.09;60.94
42847;BME280;28495;49.916;14.536;2023-03-26T07:41:48;95936.63;;;8.20;61.09
42847;BME280;28495;49.916;14.536;2023-03-26T07:47:32;95923.44;;;8.31;61.06
42847;BME280;28495;49.916;14.536;2023-03-26T07:53:15;95929.47;;;8.50;61.38
42847;BME280;28495;49.916;14.536;2023-03-26T08:11:36;95906.53;;;9.26;61.02
42847;BME280;28495;49.916;14.536;2023-03-26T08:23:07;95890.31;;;9.06;60.39
42847;BME280;28495;49.916;14.536;2023-03-26T08:34:09;95891.47;;;9.11;59.87
42847;BME280;28495;49.916;14.536;2023-03-26T08:39:30;95880.41;;;9.09;59.85
42847;BME280;28495;49.916;14.536;2023-03-26T09:02:44;95824.00;;;9.44;58.80
42847;BME280;28495;49.916;14.536;2023-03-26T09:25:31;95792.94;;;10.52;57.66
42847;BME280;28495;49.916;14.536;2023-03-26T09:31:31;95792.44;;;10.81;57.92
42847;BME280;28495;49.916;14.536;2023-03-26T09:37:12;95799.47;;;10.81;57.20
42847;BME280;28495;49.916;14.536;2023-03-26T09:42:48;95788.69;;;10.92;56.74
42847;BME280;28495;49.916;14.536;2023-03-26T09:48:50;95775.50;;;10.86;56.48
42847;BME280;28495;49.916;14.536;2023-03-26T10:00:12;95765.53;;;10.89;56.37
42847;BME280;28495;49.916;14.536;2023-03-26T10:11:22;95746.94;;;10.92;55.78
42847;BME280;28495;49.916;14.536;2023-03-26T10:46:17;95700.09;;;10.59;55.85
42847;BME280;28495;49.916;14.536;2023-03-26T10:51:51;95700.31;;;10.89;55.69
42847;BME280;28495;49.916;14.536;2023-03-26T11:08:47;95690.47;;;11.08;55.11
42847;BME280;28495;49.916;14.536;2023-03-26T11:14:36;95685.44;;;10.98;54.92
42847;BME280;28495;49.916;14.536;2023-03-26T11:20:04;95674.72;;;10.93;54.97
42847;BME280;28495;49.916;14.536;2023-03-26T11:36:38;95670.88;;;11.12;54.39
42847;BME280;28495;49.916;14.536;2023-03-26T11:42:09;95661.78;;;11.08;54.53
42847;BME280;28495;49.916;14.536;2023-03-26T11:47:41;95663.22;;;11.10;54.46
42847;BME280;28495;49.916;14.536;2023-03-26T11:53:15;95654.47;;;11.03;54.40
42847;BME280;28495;49.916;14.536;2023-03-26T11:58:46;95654.47;;;11.03;54.13
42847;BME280;28495;49.916;14.536;2023-03-26T12:04:12;95648.41;;;11.03;54.05
42847;BME280;28495;49.916;14.536;2023-03-26T12:09:34;95645.34;;;10.99;54.01
42847;BME280;28495;49.916;14.536;2023-03-26T12:14:54;95645.28;;;11.07;54.15
42847;BME280;28495;49.916;14.536;2023-03-26T12:26:04;95637.81;;;11.04;54.00
42847;BME280;28495;49.916;14.536;2023-03-26T12:31:25;95640.97;;;10.91;53.94
42847;BME280;28495;49.916;14.536;2023-03-26T12:36:54;95638.94;;;10.70;54.02
42847;BME280;28495;49.916;14.536;2023-03-26T12:48:06;95625.50;;;10.33;54.39
42847;BME280;28495;49.916;14.536;2023-03-26T13:33:41;95609.94;;;9.92;55.50
42847;BME280;28495;49.916;14.536;2023-03-26T13:39:33;95619.56;;;9.75;55.92
42847;BME280;28495;49.916;14.536;2023-03-26T13:50:32;95607.69;;;9.72;57.05
42847;BME280;28495;49.916;14.536;2023-03-26T13:55:57;95605.41;;;9.69;57.08
42847;BME280;28495;49.916;14.536;2023-03-26T14:01:42;95592.72;;;9.74;57.47
42847;BME280;28495;49.916;14.536;2023-03-26T14:07:24;95582.47;;;9.73;57.51
42847;BME280;28495;49.916;14.536;2023-03-26T14:12:55;95601.00;;;9.70;57.91
42847;BME280;28495;49.916;14.536;2023-03-26T14:18:38;95591.41;;;9.70;58.24
42847;BME280;28495;49.916;14.536;2023-03-26T14:24:28;95586.38;;;9.60;58.61
42847;BME280;28495;49.916;14.536;2023-03-26T14:41:24;95566.47;;;10.01;60.05
42847;BME280;28495;49.916;14.536;2023-03-26T14:58:09;95556.94;;;9.60;60.11
42847;BME280;28495;49.916;14.536;2023-03-26T15:09:37;95542.44;;;9.24;60.55
42847;BME280;28495;49.916;14.536;2023-03-26T15:21:12;95523.09;;;9.35;61.49
42847;BME280;28495;49.916;14.536;2023-03-26T15:44:00;95516.09;;;8.35;62.12
42847;BME280;28495;49.916;14.536;2023-03-26T15:49:39;95509.72;;;8.21;62.48
42847;BME280;28495;49.916;14.536;2023-03-26T15:55:16;95493.81;;;8.24;62.70
42847;BME280;28495;49.916;14.536;2023-03-26T16:00:52;95494.50;;;8.34;63.42
42847;BME280;28495;49.916;14.536;2023-03-26T16:07:05;95497.69;;;8.54;63.08
42847;BME280;28495;49.916;14.536;2023-03-26T16:29:15;95483.84;;;8.46;63.92
42847;BME280;28495;49.916;14.536;2023-03-26T16:34:54;95476.16;;;8.36;63.67
42847;BME280;28495;49.916;14.536;2023-03-26T16:45:53;95479.44;;;8.46;63.67
42847;BME280;28495;49.916;14.536;2023-03-26T16:51:44;95464.34;;;8.42;63.89
42847;BME280;28495;49.916;14.536;2023-03-26T16:57:21;95470.19;;;8.44;63.94
42847;BME280;28495;49.916;14.536;2023-03-26T17:14:09;95478.59;;;8.37;64.65
42847;BME280;28495;49.916;14.536;2023-03-26T17:19:39;95470.84;;;8.46;64.99
42847;BME280;28495;49.916;14.536;2023-03-26T17:25:19;95474.53;;;8.35;64.09
42847;BME280;28495;49.916;14.536;2023-03-26T17:36:43;95492.81;;;8.51;64.32
42847;BME280;28495;49.916;14.536;2023-03-26T17:53:36;95479.34;;;9.39;65.26
42847;BME280;28495;49.916;14.536;2023-03-26T17:58:58;95483.59;;;9.32;64.50
42847;BME280;28495;49.916;14.536;2023-03-26T18:04:37;95480.38;;;9.21;64.10
42847;BME280;28495;49.916;14.536;2023-03-26T18:26:52;95474.81;;;8.99;64.05
42847;BME280;28495;49.916;14.536;2023-03-26T18:32:20;95485.22;;;8.99;63.97
42847;BME280;28495;49.916;14.536;2023-03-26T18:37:42;95492.56;;;8.96;63.39
42847;BME280;28495;49.916;14.536;2023-03-26T18:43:13;95475.47;;;8.93;63.20
42847;BME280;28495;49.916;14.536;2023-03-26T18:48:52;95467.34;;;8.88;63.12
42847;BME280;28495;49.916;14.536;2023-03-26T18:54:17;95466.50;;;8.71;62.87
42847;BME280;28495;49.916;14.536;2023-03-26T18:59:42;95459.16;;;8.50;63.10
42847;BME280;28495;49.916;14.536;2023-03-26T19:05:05;95450.06;;;8.46;63.36
42847;BME280;28495;49.916;14.536;2023-03-26T19:10:27;95435.88;;;8.32;63.12
42847;BME280;28495;49.916;14.536;2023-03-26T19:15:50;95431.16;;;8.19;62.79
42847;BME280;28495;49.916;14.536;2023-03-26T19:21:12;95429.34;;;8.11;62.83
42847;BME280;28495;49.916;14.536;2023-03-26T19:26:34;95428.72;;;8.09;62.75
42847;BME280;28495;49.916;14.536;2023-03-26T19:32:18;95430.56;;;8.42;63.37
42847;BME280;28495;49.916;14.536;2023-03-26T19:37:51;95417.34;;;8.18;62.43
42847;BME280;28495;49.916;14.536;2023-03-26T19:43:16;95420.00;;;7.84;62.18
42847;BME280;28495;49.916;14.536;2023-03-26T19:48:37;95419.47;;;7.72;62.15
42847;BME280;28495;49.916;14.536;2023-03-26T19:54:14;95412.47;;;7.64;62.58
42847;BME280;28495;49.916;14.536;2023-03-26T19:59:35;95409.69;;;7.57;62.26
42847;BME280;28495;49.916;14.536;2023-03-26T20:04:56;95408.47;;;7.43;61.96
42847;BME280;28495;49.916;14.536;2023-03-26T20:10:17;95416.59;;;7.48;62.41
42847;BME280;28495;49.916;14.536;2023-03-26T20:15:38;95427.75;;;7.41;62.04
42847;BME280;28495;49.916;14.536;2023-03-26T20:21:00;95418.44;;;7.30;62.42
42847;BME280;28495;49.916;14.536;2023-03-26T20:26:22;95401.25;;;7.29;62.42
42847;BME280;28495;49.916;14.536;2023-03-26T20:31:44;95394.81;;;7.33;62.62
42847;BME280;28495;49.916;14.536;2023-03-26T20:37:05;95396.41;;;7.26;62.32
42847;BME280;28495;49.916;14.536;2023-03-26T20:42:26;95389.00;;;7.13;62.25
42847;BME280;28495;49.916;14.536;2023-03-26T20:47:48;95390.34;;;7.17;62.44
42847;BME280;28495;49.916;14.536;2023-03-26T20:53:14;95396.44;;;7.08;62.01
42847;BME280;28495;49.916;14.536;2023-03-26T20:58:36;95390.28;;;7.09;62.67
42847;BME280;28495;49.916;14.536;2023-03-26T21:03:58;95394.25;;;7.21;62.82
42847;BME280;28495;49.916;14.536;2023-03-26T21:09:20;95388.75;;;7.24;63.08
42847;BME280;28495;49.916;14.536;2023-03-26T21:14:44;95380.78;;;7.17;62.96
42847;BME280;28495;49.916;14.536;2023-03-26T21:20:06;95385.59;;;7.12;63.01
42847;BME280;28495;49.916;14.536;2023-03-26T21:25:47;95389.81;;;7.13;63.32
42847;BME280;28495;49.916;14.536;2023-03-26T21:31:17;95375.50;;;7.36;63.65
42847;BME280;28495;49.916;14.536;2023-03-26T21:36:40;95378.94;;;7.36;63.13
42847;BME280;28495;49.916;14.536;2023-03-26T21:42:01;95373.44;;;7.39;63.53
42847;BME280;28495;49.916;14.536;2023-03-26T21:47:25;95358.78;;;7.30;63.14
42847;BME280;28495;49.916;14.536;2023-03-26T21:52:47;95350.22;;;7.29;63.63
42847;BME280;28495;49.916;14.536;2023-03-26T22:04:30;95305.47;;;7.27;63.78
42847;BME280;28495;49.916;14.536;2023-03-26T22:09:54;95299.75;;;7.15;63.74
42847;BME280;28495;49.916;14.536;2023-03-26T22:15:15;95295.53;;;7.14;63.90
42847;BME280;28495;49.916;14.536;2023-03-26T22:20:38;95294.25;;;7.19;63.98
42847;BME280;28495;49.916;14.536;2023-03-26T22:25:59;95301.34;;;7.08;64.13
42847;BME280;28495;49.916;14.536;2023-03-26T22:31:19;95298.56;;;7.01;64.13
42847;BME280;28495;49.916;14.536;2023-03-26T22:36:40;95317.34;;;7.04;64.14
42847;BME280;28495;49.916;14.536;2023-03-26T22:42:01;95327.56;;;7.05;64.14
42847;BME280;28495;49.916;14.536;2023-03-26T22:47:23;95340.22;;;7.08;63.97
42847;BME280;28495;49.916;14.536;2023-03-26T22:52:44;95346.59;;;7.22;64.18
42847;BME280;28495;49.916;14.536;2023-03-26T22:58:05;95348.41;;;7.22;64.04
42847;BME280;28495;49.916;14.536;2023-03-26T23:03:26;95353.19;;;7.08;63.72
42847;BME280;28495;49.916;14.536;2023-03-26T23:08:54;95357.72;;;7.06;63.69
42847;BME280;28495;49.916;14.536;2023-03-26T23:14:16;95364.25;;;6.92;63.43
42847;BME280;28495;49.916;14.536;2023-03-26T23:19:38;95365.31;;;6.81;63.94
42847;BME280;28495;49.916;14.536;2023-03-26T23:24:59;95371.56;;;6.70;64.00
42847;BME280;28495;49.916;14.536;2023-03-26T23:30:20;95373.63;;;6.67;64.38
42847;BME280;28495;49.916;14.536;2023-03-26T23:35:40;95372.91;;;6.56;64.56
42847;BME280;28495;49.916;14.536;2023-03-26T23:41:04;95377.50;;;6.45;64.47
42847;BME280;28495;49.916;14.536;2023-03-26T23:46:27;95374.69;;;6.56;65.19
42847;BME280;28495;49.916;14.536;2023-03-26T23:51:54;95360.28;;;6.80;65.41
42847;BME280;28495;49.916;14.536;2023-03-26T23:57:15;95363.34;;;7.01;65.59
